Flight Track Log - Related Links

Times and Time Zones

All times are in EDT time to prevent confusion due to time zone crossing. See the SWA1268 flight status page for this flight to view local times or setup timezone preferences in your user account.

Time Position Orientation Groundspeed Altitude Reporting Facility
EDT Latitude Longitude Course Direction KTS MPH feet Rate Location/Type
Sun 09:53:36 AM 36.8261 -76.2536 211° Southwest 195 224 3,300  Level Washington Center
Sun 09:54:36 AM 36.7611 -76.2867 202° Southwest 226 260 7,000 3,356 Climbing Washington Center
Sun 09:55:34 AM 36.6858 -76.3250 202° Southwest 259 298 9,900 2,281 Climbing Washington Center
Sun 09:56:37 AM 36.6106 -76.3656 203° Southwest 280 322 11,600 2,244 Climbing Washington Center
Sun 09:57:37 AM 36.5206 -76.4111 202° Southwest 318 366 14,500 2,746 Climbing Washington Center
Sun 09:58:35 AM 36.4325 -76.4569 203° Southwest 336 387 17,000 2,564 Climbing Washington Center
Sun 09:59:34 AM 36.3508 -76.4997 203° Southwest 353 406 19,500 2,150 Climbing Washington Center
Sun 10:00:35 AM 36.2586 -76.5503 204° Southwest 359 413 21,300 1,835 Climbing Washington Center
Sun 10:01:35 AM 36.1644 -76.6006 203° Southwest 359 413 23,200 1,770 Climbing Washington Center
Sun 10:02:37 AM 36.0700 -76.6508 203° Southwest 365 420 24,900 1,721 Climbing Washington Center
Sun 10:03:37 AM 35.9714 -76.7033 203° Southwest 370 426 26,700 1,538 Climbing Washington Center
Sun 10:04:34 AM 35.8769 -76.7583 205° Southwest 375 432 27,900 1,361 Climbing Washington Center
Sun 10:05:36 AM 35.7886 -76.8314 214° Southwest 380 437 29,400 1,610 Climbing Washington Center
Sun 10:06:37 AM 35.7106 -76.9197 223° Southwest 385 443 31,200 1,322 Climbing Washington Center
Sun 10:07:34 AM 35.6219 -77.0128 220° Southwest 385 443 32,000 915 Climbing Washington Center
Sun 10:08:35 AM 35.5625 -77.0958 229° Southwest 374 430 33,000 934 Climbing Washington Center
Sun 10:09:36 AM 35.4861 -77.1839 223° Southwest 374 430 33,900 836 Climbing Washington Center
Sun 10:10:37 AM 35.4078 -77.2739 223° Southwest 379 436 34,700 756 Climbing Washington Center
Sun 10:11:35 AM 35.3314 -77.3639 224° Southwest 384 442 35,400 600 Climbing Washington Center
Sun 10:12:37 AM 35.2528 -77.4539 223° Southwest 384 442 35,900 295 Climbing Washington Center
Sun 10:13:37 AM 35.1742 -77.5461 224° Southwest 384 442 36,000 51 Climbing Washington Center
Sun 10:14:35 AM 35.0975 -77.6356 224° Southwest 384 442 36,000  Level Washington Center
Sun 10:15:35 AM 35.0186 -77.7275 224° Southwest 384 442 36,000  Level Washington Center
Sun 10:16:36 AM 34.9419 -77.8142 223° Southwest 384 442 36,000  Level Washington Center
Sun 10:17:37 AM 34.8653 -77.9006 223° Southwest 379 436 36,000  Level Washington Center
Sun 10:18:37 AM 34.7817 -78.0044 226° Southwest 390 449 36,000  Level Washington Center
Sun 10:19:35 AM 34.7028 -78.0906 222° Southwest 384 442 36,000  Level Washington Center
Sun 10:21:59 AM 34.5164 -78.3014 223° Southwest 387 445 36,000  Level Jacksonville Center
Sun 10:22:59 AM 34.4383 -78.3889 223° Southwest 387 445 36,000  Level Jacksonville Center
Sun 10:23:59 AM 34.3619 -78.4758 223° Southwest 387 445 36,000  Level Jacksonville Center
Sun 10:24:59 AM 34.2839 -78.5653 223° Southwest 387 445 36,000  Level Jacksonville Center
Sun 10:25:59 AM 34.2072 -78.6492 222° Southwest 387 445 36,000  Level Jacksonville Center
Sun 10:26:59 AM 34.1289 -78.7358 222° Southwest 387 445 36,000  Level Jacksonville Center
Sun 10:27:59 AM 34.0503 -78.8222 222° Southwest 387 445 36,000  Level Jacksonville Center
Sun 10:28:59 AM 33.9739 -78.9086 223° Southwest 387 445 36,000  Level Jacksonville Center
Sun 10:29:59 AM 33.8972 -78.9919 222° Southwest 382 440 36,000  Level Jacksonville Center
Sun 10:30:59 AM 33.8183 -79.0756 221° Southwest 382 440 36,000  Level Jacksonville Center
Sun 10:31:59 AM 33.7417 -79.1639 224° Southwest 382 440 36,000  Level Jacksonville Center
Sun 10:32:59 AM 33.6669 -79.2442 222° Southwest 377 434 36,000  Level Jacksonville Center
Sun 10:33:59 AM 33.5919 -79.3272 223° Southwest 377 434 36,000  Level Jacksonville Center
Sun 10:34:59 AM 33.5131 -79.4125 222° Southwest 383 441 36,000  Level Jacksonville Center
Sun 10:35:59 AM 33.4381 -79.4950 223° Southwest 383 441 36,000  Level Jacksonville Center
Sun 10:36:59 AM 33.3611 -79.5800 223° Southwest 383 441 36,000  Level Jacksonville Center
Sun 10:37:59 AM 33.2839 -79.6625 222° Southwest 383 441 36,000  Level Jacksonville Center
Sun 10:38:59 AM 33.2067 -79.7472 223° Southwest 383 441 36,000  Level Jacksonville Center
Sun 10:39:59 AM 33.1275 -79.8344 223° Southwest 383 441 36,000  Level Jacksonville Center
Sun 10:40:59 AM 33.0481 -79.9164 221° Southwest 383 441 36,000  Level Jacksonville Center
Sun 10:41:59 AM 32.9686 -80.0031 222° Southwest 383 441 36,000  Level Jacksonville Center
Sun 10:42:59 AM 32.8892 -80.0872 222° Southwest 383 441 36,000 -50 Level Jacksonville Center
Sun 10:43:59 AM 32.8117 -80.1736 223° Southwest 383 441 35,900  Descending Jacksonville Center
Sun 10:44:59 AM 32.7297 -80.2553 220° Southwest 383 441 36,000 50 Climbing Jacksonville Center
Sun 10:45:59 AM 32.6522 -80.3414 223° Southwest 383 441 36,000  Level Jacksonville Center
Sun 10:46:59 AM 32.5725 -80.4275 222° Southwest 383 441 36,000  Level Jacksonville Center
Sun 10:47:59 AM 32.4906 -80.5108 221° Southwest 392 451 36,000 -50 Level Jacksonville Center
Sun 10:48:59 AM 32.4131 -80.5967 223° Southwest 392 451 35,900  Descending Jacksonville Center
Sun 10:49:59 AM 32.3331 -80.6797 221° Southwest 380 437 36,000 50 Climbing Jacksonville Center
Sun 10:50:59 AM 32.2553 -80.7678 224° Southwest 385 443 36,000  Level Jacksonville Center
Sun 10:51:59 AM 32.1814 -80.8431 221° Southwest 390 449 36,000  Level Jacksonville Center
Sun 10:52:59 AM 32.0931 -80.9333 221° Southwest 390 449 36,000  Level Jacksonville Center
Sun 10:53:59 AM 32.0086 -81.0183 220° Southwest 390 449 36,000  Level Jacksonville Center
Sun 10:54:59 AM 31.9325 -81.0983 222° Southwest 400 460 36,000  Level Jacksonville Center
Sun 10:55:59 AM 31.8419 -81.1928 222° Southwest 405 466 36,000  Level Jacksonville Center
Sun 10:56:59 AM 31.7597 -81.2800 222° Southwest 400 460 36,000  Level Jacksonville Center
Sun 10:57:59 AM 31.6894 -81.3519 221° Southwest 395 455 36,000  Level Jacksonville Center
Sun 10:58:59 AM 31.6156 -81.4531 229° Southwest 375 432 36,000  Level Jacksonville Center
Sun 10:59:59 AM 31.5833 -81.5658 251° West 363 418 36,000  Level Jacksonville Center
Sun 11:00:59 AM 31.5592 -81.6661 254° West 357 411 36,000  Level Jacksonville Center
Sun 11:01:59 AM 31.5292 -81.7861 254° West 357 411 36,000  Level Jacksonville Center
Sun 11:02:59 AM 31.4628 -81.8600 224° Southwest 351 404 36,000  Level Jacksonville Center
Sun 11:03:59 AM 31.3422 -81.8978 195° South 366 421 36,000  Level Jacksonville Center
Sun 11:04:59 AM 31.2294 -81.9256 192° South 413 475 36,000  Level Jacksonville Center
Sun 11:05:59 AM 31.1150 -81.9583 194° South 421 484 36,000  Level Jacksonville Center
Sun 11:06:59 AM 31.0025 -81.9886 193° South 421 484 36,000  Level Jacksonville Center
Sun 11:07:59 AM 30.8878 -82.0186 193° South 421 484 36,000  Level Jacksonville Center
Sun 11:08:59 AM 30.7731 -82.0486 193° South 426 490 36,000  Level Jacksonville Center
Sun 11:09:59 AM 30.6586 -82.0786 193° South 426 490 36,000  Level Jacksonville Center
Sun 11:10:59 AM 30.5458 -82.1086 193° South 426 490 36,000  Level Jacksonville Center
Sun 11:11:59 AM 30.4458 -82.1289 190° South 421 484 36,000  Level Jacksonville Center
Sun 11:12:59 AM 30.3333 -82.1608 194° South 416 479 36,000  Level Jacksonville Center
Sun 11:13:59 AM 30.2208 -82.1906 193° South 416 479 36,000  Level Jacksonville Center
Sun 11:14:59 AM 30.1081 -82.2203 193° South 416 479 36,000  Level Jacksonville Center
Sun 11:15:59 AM 29.9997 -82.2522 194° South 411 473 36,000 -850 Level Jacksonville Center
Sun 11:16:59 AM 29.8892 -82.2817 193° South 411 473 34,300 -2,200 Descending Jacksonville Center
Sun 11:17:59 AM 29.7786 -82.3111 193° South 411 473 31,600 -2,650 Descending Jacksonville Center
Sun 11:18:59 AM 29.6725 -82.3356 191° South 406 467 29,000 -2,300 Descending Jacksonville Center
Sun 11:19:59 AM 29.5661 -82.3553 189° South 400 460 27,000 -1,000 Descending Jacksonville Center
Sun 11:20:59 AM 29.4511 -82.3442 175° South 400 460 27,000 -1,050 Level Jacksonville Center
Sun 11:21:59 AM 29.3342 -82.3303 174° South 411 473 24,900 -2,150 Descending Jacksonville Center
Sun 11:22:59 AM 29.2256 -82.3167 174° South 411 473 22,700 -2,100 Descending Jacksonville Center
Sun 11:23:59 AM 29.1192 -82.3031 174° South 401 461 20,700 -2,050 Descending Jacksonville Center
Sun 11:24:59 AM 29.0147 -82.2894 173° South 390 449 18,600 -2,200 Descending Jacksonville Center
Sun 11:25:59 AM 28.8978 -82.2783 175° South 385 443 16,300 -2,250 Descending Jacksonville Center
Sun 11:26:59 AM 28.7953 -82.2672 175° South 385 443 14,100 -1,398 Descending Jacksonville Center
Sun 11:28:55 AM 28.6000 -82.2500 176° South 363 418 12,200 -989 Descending Tampa TRACON
Sun 11:29:55 AM 28.5000 -82.2500 180° South 359 413 11,200 -600 Descending Tampa TRACON
Sun 11:30:55 AM 28.4000 -82.2500 180° South 355 409 11,000 -100 Descending Tampa TRACON
Sun 11:31:55 AM 28.3000 -82.2833 196° South 338 389 11,000 -450 Level Tampa TRACON
Sun 11:32:55 AM 28.2167 -82.3167 199° South 320 368 10,100 -1,150 Descending Tampa TRACON
Sun 11:33:55 AM 28.1333 -82.3500 199° South 297 342 8,700 -1,550 Descending Tampa TRACON
Sun 11:34:55 AM 28.0667 -82.3833 204° Southwest 300 345 7,000 -1,636 Descending Tampa TRACON
Sun 11:35:56 AM 27.9833 -82.4167 199° South 295 339 5,400 -1,550 Descending Tampa TRACON
Sun 11:36:55 AM 27.9167 -82.4500 204° Southwest 280 322 3,900 -1,400 Descending Tampa TRACON
Sun 11:37:56 AM 27.8500 -82.4833 204° Southwest 281 323 2,600 -645 Descending Tampa TRACON
Sun 11:38:56 AM 27.8500 -82.5500 270° West 184 212 2,600 -550 Level Tampa TRACON
Sun 11:39:56 AM 27.9000 -82.5500 360° North 129 148 1,500 -950 Descending Tampa TRACON
Sun 11:40:56 AM 27.9333 -82.5500 360° North 129 148 700 -800 Descending Tampa TRACON

Login

Don't have an account? Register now (free) for customized features, flight alerts, and more!